Time;durP1;ratioP1;P1;durP2;ratioP2;P2;SDS_P1;SDS_P2;PMS_P1;PMS_P2;Temp;Humidity;BMP_temperature;BMP_pressure;BME280_temperature;BME280_humidity;BME280_pressure;Samples;Min_cycle;Max_cycle;Signal;HPM_P1;HPM_P2
2023/11/23 00:01:36;;;;;;;9.38;5.90;;;;;;;6.32;45.66;102132.13;5108573;28;20507;-73
2023/11/23 00:04:04;;;;;;;10.90;6.20;;;;;;;6.33;45.72;102133.88;5092485;28;20561;-73
2023/11/23 00:06:32;;;;;;;10.30;6.30;;;;;;;6.33;45.73;102128.44;5092039;28;20047;-73
2023/11/23 00:09:01;;;;;;;9.32;5.97;;;;;;;6.33;45.71;102131.16;5082330;28;20391;-73
2023/11/23 00:11:29;;;;;;;11.65;5.72;;;;;;;6.32;45.75;102122.13;5111953;28;20050;-73
2023/11/23 00:13:59;;;;;;;12.27;6.63;;;;;;;6.34;45.81;102114.78;5111866;28;20039;-73
2023/11/23 00:16:26;;;;;;;10.13;6.00;;;;;;;6.34;45.92;102113.88;5110554;28;20132;-72
2023/11/23 00:18:54;;;;;;;10.73;6.50;;;;;;;6.34;45.66;102109.34;5085773;28;20425;-73
2023/11/23 00:21:22;;;;;;;9.20;5.80;;;;;;;6.34;45.92;102105.72;5113316;28;20043;-73
2023/11/23 00:23:50;;;;;;;9.50;5.85;;;;;;;6.35;45.90;102096.63;5087808;28;20115;-73
2023/11/23 00:26:18;;;;;;;10.32;5.97;;;;;;;6.35;46.24;102089.34;5092435;28;20076;-72
2023/11/23 00:28:56;;;;;;;10.60;5.97;;;;;;;6.37;45.96;102086.53;5085819;28;20073;-73
2023/11/23 00:31:25;;;;;;;9.15;5.30;;;;;;;6.39;46.11;102090.06;5111069;28;20374;-73
2023/11/23 00:33:53;;;;;;;11.43;6.30;;;;;;;6.39;46.24;102088.22;5102618;28;20126;-73
2023/11/23 00:36:21;;;;;;;10.65;5.90;;;;;;;6.40;46.23;102086.38;5110881;28;20119;-72
2023/11/23 00:38:49;;;;;;;10.93;6.15;;;;;;;6.40;46.24;102091.81;5092636;28;20043;-73
2023/11/23 00:41:17;;;;;;;11.90;5.82;;;;;;;6.41;46.18;102090.88;5089630;28;20120;-73
2023/11/23 00:43:45;;;;;;;10.23;5.90;;;;;;;6.42;46.28;102087.19;5110058;28;20954;-72
2023/11/23 00:46:14;;;;;;;11.02;6.53;;;;;;;6.43;46.43;102088.97;5087739;28;20040;-72
2023/11/23 00:48:44;;;;;;;10.23;6.15;;;;;;;6.45;46.75;102084.31;5091729;28;20067;-72
2023/11/23 00:51:11;;;;;;;11.43;5.63;;;;;;;6.45;46.77;102084.31;5091831;28;20071;-73
2023/11/23 00:53:39;;;;;;;9.52;5.82;;;;;;;6.46;46.69;102080.63;5092104;28;20039;-72
2023/11/23 00:56:08;;;;;;;10.00;5.88;;;;;;;6.47;47.05;102074.22;5109917;28;20040;-73
2023/11/23 00:58:35;;;;;;;9.85;5.80;;;;;;;6.49;46.76;102068.72;5110705;28;20043;-73
2023/11/23 01:01:04;;;;;;;12.40;5.55;;;;;;;6.49;47.20;102061.44;5083261;28;20103;-72
2023/11/23 01:03:32;;;;;;;10.90;5.15;;;;;;;6.51;47.28;102064.97;5090836;28;20044;-72
2023/11/23 01:06:02;;;;;;;9.85;5.30;;;;;;;6.53;47.61;102063.03;5111013;28;20044;-73
2023/11/23 01:08:30;;;;;;;8.30;4.68;;;;;;;6.52;47.56;102057.69;5109035;28;20050;-72
2023/11/23 01:10:59;;;;;;;9.60;5.90;;;;;;;6.53;47.64;102052.16;5091940;28;20450;-73
2023/11/23 01:13:27;;;;;;;9.65;5.50;;;;;;;6.55;47.77;102060.22;5089660;28;20478;-73
2023/11/23 01:15:55;;;;;;;11.90;5.65;;;;;;;6.56;47.58;102054.72;5089320;28;20055;-73
2023/11/23 01:18:24;;;;;;;9.23;5.15;;;;;;;6.57;48.14;102059.22;5108950;28;20588;-73
2023/11/23 01:20:52;;;;;;;9.32;5.50;;;;;;;6.59;48.28;102057.28;5092868;28;20107;-72
2023/11/23 01:23:21;;;;;;;10.05;5.72;;;;;;;6.59;48.26;102049.13;5110467;28;20048;-72
2023/11/23 01:25:49;;;;;;;10.82;5.30;;;;;;;6.59;48.40;102040.97;5090197;28;20040;-72
2023/11/23 01:28:17;;;;;;;10.80;5.53;;;;;;;6.60;48.42;102042.75;5109543;28;20043;-72
2023/11/23 01:30:45;;;;;;;9.38;5.70;;;;;;;6.61;48.34;102047.19;5091043;28;20048;-73
2023/11/23 01:33:14;;;;;;;11.98;6.05;;;;;;;6.62;48.58;102045.34;5091790;28;20333;-73
2023/11/23 01:35:42;;;;;;;10.25;5.80;;;;;;;6.64;48.71;102048.88;5090982;28;20147;-72
2023/11/23 01:38:10;;;;;;;11.40;6.18;;;;;;;6.65;48.74;102050.66;5085763;28;20043;-72
2023/11/23 01:40:39;;;;;;;9.20;5.45;;;;;;;6.68;49.11;102045.06;5109480;28;20456;-72
2023/11/23 01:43:09;;;;;;;10.73;5.82;;;;;;;6.68;49.06;102059.53;5109898;28;20048;-73
2023/11/23 01:45:39;;;;;;;11.93;6.47;;;;;;;6.67;49.11;102037.84;5089969;28;20075;-73
2023/11/23 01:48:07;;;;;;;11.52;6.47;;;;;;;6.69;49.37;102057.69;5105678;28;20048;-73
2023/11/23 01:50:37;;;;;;;10.15;5.90;;;;;;;6.69;49.32;102050.41;5109372;28;20067;-73
2023/11/23 01:53:05;;;;;;;9.45;5.85;;;;;;;6.70;49.62;102051.28;5087039;28;20379;-72
2023/11/23 01:55:33;;;;;;;10.20;6.32;;;;;;;6.70;49.52;102052.16;5091200;28;20506;-73
2023/11/23 01:58:06;;;;;;;11.55;6.00;;;;;;;6.72;50.09;102038.47;5081900;28;20103;-73
2023/11/23 02:00:34;;;;;;;;;;;;;;;6.47;51.03;102051.59;5107954;28;20069;-73
2023/11/23 02:03:02;;;;;;;9.60;5.82;;;;;;;6.68;49.86;102054.09;5082997;28;19950;-73
2023/11/23 02:05:30;;;;;;;11.88;6.18;;;;;;;6.72;49.88;102049.34;5089546;28;20122;-73
2023/11/23 02:07:58;;;;;;;10.07;5.95;;;;;;;6.74;49.74;102050.16;5088346;28;20058;-72
2023/11/23 02:10:27;;;;;;;10.07;5.82;;;;;;;6.74;49.90;102042.00;5091513;28;20044;-73
2023/11/23 02:12:55;;;;;;;10.05;6.07;;;;;;;6.74;50.34;102042.91;5089860;28;20594;-73
2023/11/23 02:15:25;;;;;;;9.02;4.93;;;;;;;6.76;50.24;102041.00;5091115;28;20082;-73
2023/11/23 02:18:03;;;;;;;11.00;5.78;;;;;;;6.79;51.44;102046.25;5109072;28;20116;-72
2023/11/23 02:20:32;;;;;;;11.73;6.70;;;;;;;6.77;50.23;102048.22;5097091;28;20055;-73
2023/11/23 02:23:00;;;;;;;11.23;6.40;;;;;;;6.77;50.48;102045.50;5090802;28;20036;-72
2023/11/23 02:25:30;;;;;;;11.10;6.03;;;;;;;6.80;50.61;102039.88;5108830;28;20044;-73
2023/11/23 02:27:58;;;;;;;12.30;6.70;;;;;;;6.79;50.84;102038.09;5099848;28;20138;-72
2023/11/23 02:30:26;;;;;;;12.00;6.55;;;;;;;6.80;50.28;102039.88;5094993;28;20395;-73
2023/11/23 02:32:54;;;;;;;11.57;6.72;;;;;;;6.81;50.78;102033.47;5106545;28;20049;-72
2023/11/23 02:35:23;;;;;;;12.43;6.78;;;;;;;6.82;50.66;102031.63;5112860;28;20105;-73
2023/11/23 02:37:50;;;;;;;10.90;6.60;;;;;;;6.82;50.99;102026.19;5094853;28;20051;-73
2023/11/23 02:40:19;;;;;;;10.38;6.38;;;;;;;6.82;50.70;102029.78;5113635;28;20048;-73
2023/11/23 02:42:48;;;;;;;12.25;6.80;;;;;;;6.84;51.27;102031.56;5094581;28;20146;-72
2023/11/23 02:45:16;;;;;;;11.05;6.00;;;;;;;6.84;51.06;102035.16;5113089;28;20028;-73
2023/11/23 02:47:44;;;;;;;11.88;6.53;;;;;;;6.84;50.75;102027.00;5092919;28;20044;-73
2023/11/23 02:50:12;;;;;;;10.63;6.00;;;;;;;6.86;51.19;102026.91;5093392;28;20251;-73
2023/11/23 02:52:40;;;;;;;12.25;6.45;;;;;;;6.86;51.15;102025.03;5110245;28;20039;-73
2023/11/23 02:55:10;;;;;;;11.57;6.43;;;;;;;6.88;51.24;102024.97;5113335;28;20498;-73
2023/11/23 02:57:39;;;;;;;12.15;6.68;;;;;;;6.87;51.28;102024.09;5092258;28;20052;-72
2023/11/23 03:00:11;;;;;;;11.82;6.90;;;;;;;6.90;51.33;102029.38;5113085;28;20107;-73
2023/11/23 03:02:40;;;;;;;11.52;6.70;;;;;;;6.88;51.53;102028.56;5111732;28;20052;-73
2023/11/23 03:05:10;;;;;;;10.77;6.05;;;;;;;6.90;51.42;102032.09;5091011;28;20056;-72
2023/11/23 03:07:39;;;;;;;10.85;6.18;;;;;;;6.91;51.37;102025.69;5112420;28;20047;-73
2023/11/23 03:10:09;;;;;;;9.80;6.45;;;;;;;6.92;51.45;102027.47;5090997;28;20115;-73
2023/11/23 03:12:37;;;;;;;9.98;6.30;;;;;;;6.92;51.69;102019.28;5087088;28;20048;-72
2023/11/23 03:15:05;;;;;;;10.73;6.20;;;;;;;6.94;51.77;102028.22;5090477;28;20100;-72
2023/11/23 03:17:35;;;;;;;11.73;6.45;;;;;;;6.95;51.56;102021.81;5110758;28;20062;-73
2023/11/23 03:20:03;;;;;;;10.73;6.50;;;;;;;6.96;51.78;102020.88;5085840;28;20434;-73
2023/11/23 03:22:32;;;;;;;12.32;6.03;;;;;;;6.97;52.02;102010.88;5105408;28;20038;-73
2023/11/23 03:25:00;;;;;;;10.88;6.07;;;;;;;6.97;51.80;102008.16;5082479;28;20399;-72
2023/11/23 03:27:29;;;;;;;11.23;6.25;;;;;;;6.99;51.48;102008.94;5112937;28;20067;-73
2023/11/23 03:29:57;;;;;;;10.15;6.05;;;;;;;7.00;52.02;102010.72;5091523;28;20109;-72
2023/11/23 03:32:29;;;;;;;10.50;6.13;;;;;;;7.00;52.05;102002.53;5093402;28;20139;-72
2023/11/23 03:34:59;;;;;;;10.23;6.35;;;;;;;6.99;51.79;101990.78;5092267;28;20514;-72
2023/11/23 03:37:28;;;;;;;11.18;5.93;;;;;;;7.02;52.20;102004.22;5112256;28;20048;-73
2023/11/23 03:39:56;;;;;;;11.05;6.75;;;;;;;7.03;51.88;101995.06;5092368;28;20051;-72
2023/11/23 03:42:23;;;;;;;10.57;5.82;;;;;;;7.04;51.95;101996.84;5089313;28;20670;-72
2023/11/23 03:44:51;;;;;;;13.30;6.85;;;;;;;7.04;52.23;101991.41;5090789;28;20043;-73
2023/11/23 03:47:19;;;;;;;10.43;5.93;;;;;;;7.06;52.08;101992.19;5088268;28;20052;-72
2023/11/23 03:49:47;;;;;;;10.10;6.47;;;;;;;7.07;52.23;101991.25;5110375;28;20040;-72
2023/11/23 03:52:17;;;;;;;11.88;6.90;;;;;;;7.07;52.26;101982.19;5111124;28;20435;-73
2023/11/23 03:54:45;;;;;;;11.13;6.80;;;;;;;7.07;52.20;101977.63;5092718;28;20039;-73
2023/11/23 03:57:13;;;;;;;11.20;6.63;;;;;;;7.08;52.20;101978.50;5112113;27;20050;-73
2023/11/23 03:59:41;;;;;;;10.43;6.45;;;;;;;7.09;52.13;101970.25;5092326;28;20085;-73
2023/11/23 04:02:09;;;;;;;11.57;6.30;;;;;;;7.10;52.15;101965.69;5110847;28;20036;-73
2023/11/23 04:04:38;;;;;;;11.25;6.30;;;;;;;7.11;52.30;101968.31;5092083;28;20044;-73
2023/11/23 04:07:06;;;;;;;11.45;6.68;;;;;;;7.11;52.18;101956.53;5089542;28;20550;-73
2023/11/23 04:09:35;;;;;;;11.80;6.97;;;;;;;7.13;52.57;101957.34;5103459;28;20044;-72
2023/11/23 04:12:04;;;;;;;11.60;6.70;;;;;;;7.13;52.26;101954.63;5112344;28;20054;-73
2023/11/23 04:14:32;;;;;;;11.85;6.97;;;;;;;7.13;52.27;101960.94;5106353;28;20044;-73
2023/11/23 04:17:00;;;;;;;10.88;6.82;;;;;;;7.15;52.51;101955.41;5089513;28;20082;-73
2023/11/23 04:19:28;;;;;;;10.88;6.50;;;;;;;7.15;52.40;101961.75;5110906;28;20039;-73
2023/11/23 04:21:56;;;;;;;11.13;7.22;;;;;;;7.17;52.79;101948.94;5093049;28;20131;-73
2023/11/23 04:24:24;;;;;;;11.88;6.88;;;;;;;7.18;52.75;101955.25;5111183;28;20040;-73
2023/11/23 04:26:54;;;;;;;11.20;7.03;;;;;;;7.20;52.56;101956.03;5089710;28;20243;-73
2023/11/23 04:29:22;;;;;;;10.25;6.82;;;;;;;7.20;52.81;101953.31;5092547;28;20043;-72
2023/11/23 04:31:50;;;;;;;11.38;6.90;;;;;;;7.21;52.58;101957.78;5092727;28;20127;-72
2023/11/23 04:34:18;;;;;;;13.02;7.38;;;;;;;7.22;52.51;101962.28;5093168;28;20051;-73
2023/11/23 04:36:46;;;;;;;10.82;6.60;;;;;;;7.23;52.57;101966.75;5092446;28;20036;-73
2023/11/23 04:39:14;;;;;;;13.98;7.38;;;;;;;7.24;52.63;101962.19;5089057;28;20103;-73
2023/11/23 04:41:42;;;;;;;13.63;7.50;;;;;;;7.25;52.90;101961.22;5111755;28;20432;-73
2023/11/23 04:44:11;;;;;;;12.38;7.10;;;;;;;7.27;52.78;101960.16;5111645;28;20134;-73
2023/11/23 04:46:39;;;;;;;11.98;7.40;;;;;;;7.27;52.73;101952.00;5110691;28;20641;-73
2023/11/23 04:49:07;;;;;;;11.32;7.40;;;;;;;7.27;53.04;101952.00;5109490;28;20044;-73
2023/11/23 04:51:35;;;;;;;12.90;8.15;;;;;;;7.28;52.92;101942.84;5092415;28;20040;-73
2023/11/23 04:54:04;;;;;;;14.40;7.82;;;;;;;7.30;52.90;101951.81;5095823;28;20486;-73
2023/11/23 04:56:32;;;;;;;14.13;8.15;;;;;;;7.31;53.08;101941.81;5108483;28;20048;-72
2023/11/23 04:59:02;;;;;;;13.82;8.13;;;;;;;7.33;53.05;101945.34;5091977;28;20466;-73
2023/11/23 05:01:32;;;;;;;14.70;7.80;;;;;;;7.34;53.49;101944.38;5110441;28;20044;-73
2023/11/23 05:03:59;;;;;;;12.90;7.60;;;;;;;7.34;53.24;101947.09;5104109;28;20135;-73
2023/11/23 05:06:32;;;;;;;13.35;7.95;;;;;;;7.33;53.18;101948.94;5093030;28;20048;-73
2023/11/23 05:09:00;;;;;;;11.85;7.72;;;;;;;7.37;53.60;101949.63;5091491;28;20406;-73
2023/11/23 05:11:29;;;;;;;12.95;8.27;;;;;;;7.38;53.34;101955.00;5091612;28;20055;-72
2023/11/23 05:13:57;;;;;;;13.73;8.32;;;;;;;7.40;53.20;101946.75;5110207;28;20093;-73
2023/11/23 05:16:25;;;;;;;14.23;8.63;;;;;;;7.40;53.28;101944.03;5084448;28;20078;-72
2023/11/23 05:18:55;;;;;;;13.10;8.35;;;;;;;7.44;53.57;101945.59;5114147;28;20112;-72
2023/11/23 05:21:23;;;;;;;14.88;8.45;;;;;;;7.42;53.56;101942.97;5089572;28;20067;-73
2023/11/23 05:23:51;;;;;;;12.88;8.00;;;;;;;7.44;53.28;101937.41;5110996;28;20051;-73
2023/11/23 05:26:19;;;;;;;13.65;8.30;;;;;;;7.44;53.61;101943.75;5090883;28;20048;-73
2023/11/23 05:28:47;;;;;;;13.23;8.10;;;;;;;7.46;53.49;101939.09;5093434;28;20053;-73
2023/11/23 05:31:15;;;;;;;13.57;8.60;;;;;;;7.47;53.50;101938.13;5104656;28;20044;-73
2023/11/23 05:33:43;;;;;;;13.45;8.45;;;;;;;7.47;53.77;101940.84;5104402;28;20054;-73
2023/11/23 05:36:13;;;;;;;15.93;8.55;;;;;;;7.51;53.50;101936.13;5111947;28;20032;-74
2023/11/23 05:38:41;;;;;;;13.80;8.68;;;;;;;7.48;53.87;101934.44;5091035;28;20526;-73
2023/11/23 05:41:09;;;;;;;13.38;8.18;;;;;;;7.51;53.74;101937.00;5106943;28;20109;-73
2023/11/23 05:43:37;;;;;;;12.45;7.80;;;;;;;7.51;53.76;101945.19;5106912;28;20390;-73
2023/11/23 05:46:05;;;;;;;13.05;8.70;;;;;;;7.53;53.91;101940.50;5089625;28;20048;-73
2023/11/23 05:48:33;;;;;;;13.98;8.77;;;;;;;7.55;53.53;101948.59;5090651;28;20426;-73
2023/11/23 05:51:02;;;;;;;12.63;8.18;;;;;;;7.55;53.78;101946.75;5093497;28;20059;-72
2023/11/23 05:53:31;;;;;;;13.35;8.07;;;;;;;7.58;53.66;101948.41;5080712;28;20036;-72
2023/11/23 05:56:01;;;;;;;12.35;7.70;;;;;;;7.58;53.93;101951.16;5109201;28;20047;-73
2023/11/23 05:58:28;;;;;;;13.15;7.80;;;;;;;7.60;53.92;101954.63;5090449;28;20036;-73
2023/11/23 06:00:56;;;;;;;14.15;8.38;;;;;;;7.61;53.91;101952.78;5090753;28;20048;-73
2023/11/23 06:03:37;;;;;;;14.43;8.38;;;;;;;7.62;54.12;101954.56;5093063;28;20051;-73
2023/11/23 06:06:07;;;;;;;14.38;8.52;;;;;;;7.65;53.87;101954.38;5082818;28;20040;-73
2023/11/23 06:08:36;;;;;;;13.85;8.77;;;;;;;7.67;54.01;101957.91;5100125;28;20050;-72
2023/11/23 06:11:04;;;;;;;13.50;8.45;;;;;;;7.67;54.33;101944.28;5082454;28;20043;-73
2023/11/23 06:13:32;;;;;;;14.38;8.75;;;;;;;7.68;54.22;101943.31;5092171;28;20043;-73
2023/11/23 06:16:01;;;;;;;12.27;8.00;;;;;;;7.69;54.19;101929.56;5110746;28;20047;-73
2023/11/23 06:18:30;;;;;;;13.20;8.07;;;;;;;7.71;53.90;101933.09;5113162;28;20036;-73
2023/11/23 06:20:58;;;;;;;12.75;7.88;;;;;;;7.73;53.89;101938.47;5105105;28;20090;-73
2023/11/23 06:23:25;;;;;;;12.90;8.82;;;;;;;7.74;53.76;101932.06;5085688;28;20046;-73
2023/11/23 06:25:55;;;;;;;13.65;9.00;;;;;;;7.75;54.33;101914.75;5086097;28;20054;-73
2023/11/23 06:28:23;;;;;;;13.75;8.90;;;;;;;7.75;54.19;101914.75;5090656;28;20519;-73
2023/11/23 06:30:51;;;;;;;13.63;9.50;;;;;;;7.76;54.06;101920.09;5091588;28;20074;-73
2023/11/23 06:33:19;;;;;;;14.88;9.05;;;;;;;7.77;54.03;101918.22;5113434;28;20055;-73
2023/11/23 06:35:48;;;;;;;15.38;9.25;;;;;;;7.78;54.31;101922.72;5111424;28;20529;-73
2023/11/23 06:38:18;;;;;;;14.40;9.02;;;;;;;7.79;54.50;101927.19;5091178;28;20127;-73
2023/11/23 06:40:47;;;;;;;14.35;9.25;;;;;;;7.80;54.15;101928.97;5111475;28;20043;-73
2023/11/23 06:43:16;;;;;;;14.63;9.20;;;;;;;7.81;54.59;101926.16;5107279;28;20046;-73
2023/11/23 06:45:44;;;;;;;13.73;9.77;;;;;;;7.81;54.36;101926.16;5111635;28;20067;-73
2023/11/23 06:48:12;;;;;;;13.23;8.75;;;;;;;7.82;54.20;101929.75;5094205;28;20119;-72
2023/11/23 06:50:40;;;;;;;14.80;9.18;;;;;;;7.84;54.61;101930.56;5087357;28;20051;-74
2023/11/23 06:53:08;;;;;;;13.98;9.40;;;;;;;7.84;54.58;101928.69;5085171;28;20507;-73
2023/11/23 06:55:36;;;;;;;13.90;9.68;;;;;;;7.86;54.28;101931.31;5109913;28;20571;-73
2023/11/23 06:58:05;;;;;;;14.45;9.48;;;;;;;7.88;54.66;101904.84;5085247;28;20039;-73
2023/11/23 07:00:38;;;;;;;16.75;9.98;;;;;;;7.89;54.26;101904.75;5090849;28;20071;-73
2023/11/23 07:03:06;;;;;;;15.55;9.55;;;;;;;7.90;54.74;101897.47;5110494;28;20166;-73
2023/11/23 07:05:34;;;;;;;14.45;9.30;;;;;;;7.91;54.68;101896.50;5111229;28;20139;-73
2023/11/23 07:08:02;;;;;;;13.00;8.48;;;;;;;7.92;54.61;101901.00;5110942;28;20048;-73
2023/11/23 07:10:33;;;;;;;15.30;9.02;;;;;;;7.93;54.46;101900.00;5107200;28;20044;-73
2023/11/23 07:13:03;;;;;;;14.85;9.48;;;;;;;7.94;54.44;101905.34;5083194;28;20089;-72
2023/11/23 07:15:31;;;;;;;14.07;8.68;;;;;;;7.96;54.48;101892.53;5111948;28;20493;-73
2023/11/23 07:18:01;;;;;;;14.50;9.55;;;;;;;7.99;54.83;101904.22;5102900;28;20050;-73
2023/11/23 07:20:29;;;;;;;13.70;8.93;;;;;;;7.99;54.85;101894.19;5110117;28;20071;-73
2023/11/23 07:22:57;;;;;;;14.32;8.98;;;;;;;7.99;54.98;101902.38;5110988;28;20077;-74
2023/11/23 07:25:25;;;;;;;13.70;9.25;;;;;;;8.02;54.73;101902.16;5111632;28;20082;-74
2023/11/23 07:27:54;;;;;;;12.95;8.75;;;;;;;8.03;54.67;101901.19;5087211;28;20040;-73
2023/11/23 07:30:22;;;;;;;15.45;9.07;;;;;;;8.05;54.54;101904.72;5109314;28;20514;-73
2023/11/23 07:32:50;;;;;;;13.10;9.10;;;;;;;8.07;54.94;101904.63;5105936;28;20679;-74
2023/11/23 07:35:19;;;;;;;13.73;8.75;;;;;;;8.09;54.50;101898.13;5106871;28;20096;-74
2023/11/23 07:37:47;;;;;;;14.80;9.13;;;;;;;8.09;55.06;101897.25;5108433;28;20039;-73
2023/11/23 07:40:16;;;;;;;13.38;9.15;;;;;;;8.10;54.90;101897.13;5086450;28;20040;-73
2023/11/23 07:42:44;;;;;;;15.73;9.25;;;;;;;8.11;54.86;101893.44;5083303;28;20039;-73
2023/11/23 07:45:12;;;;;;;12.60;8.30;;;;;;;8.13;54.78;101896.06;5108583;28;20043;-73
2023/11/23 07:47:42;;;;;;;11.55;8.20;;;;;;;8.15;54.76;101897.78;5109575;28;20043;-74
2023/11/23 07:50:11;;;;;;;12.90;8.77;;;;;;;8.16;55.11;101895.94;5109081;28;20055;-73
2023/11/23 07:52:40;;;;;;;12.52;8.50;;;;;;;8.17;55.25;101887.66;5108737;28;20039;-72
2023/11/23 07:55:10;;;;;;;13.65;8.80;;;;;;;8.18;54.96;101903.03;5092273;28;20510;-73
2023/11/23 07:57:38;;;;;;;13.70;9.23;;;;;;;8.20;55.20;101894.75;5092205;28;20035;-75
2023/11/23 08:00:07;;;;;;;11.85;8.75;;;;;;;8.21;54.82;101894.66;5104050;22;20086;-76
2023/11/23 08:02:36;;;;;;;13.50;8.77;;;;;;;8.21;55.03;101894.66;5108498;27;20044;-76
2023/11/23 08:05:05;;;;;;;13.90;9.15;;;;;;;8.22;55.15;101893.69;5109148;28;20423;-78
2023/11/23 08:07:33;;;;;;;12.73;8.40;;;;;;;8.23;55.35;101890.00;5106162;28;20039;-76
2023/11/23 08:10:08;;;;;;;12.35;8.75;;;;;;;8.25;55.15;101882.63;5090054;28;20424;-77
2023/11/23 08:12:36;;;;;;;13.80;8.63;;;;;;;8.26;55.11;101878.00;5064011;28;20044;-76
2023/11/23 08:15:06;;;;;;;13.45;8.95;;;;;;;8.26;54.98;101876.16;5076138;28;20051;-77
2023/11/23 08:17:34;;;;;;;14.48;9.23;;;;;;;8.28;55.33;101873.34;5058258;28;20094;-77
2023/11/23 08:20:06;;;;;;;14.98;9.02;;;;;;;8.28;55.00;101873.34;5091314;28;20087;-76
2023/11/23 08:22:34;;;;;;;13.93;9.00;;;;;;;8.29;54.97;101873.25;5073740;28;20040;-77
2023/11/23 08:25:04;;;;;;;14.57;9.38;;;;;;;8.32;55.00;101873.06;5094628;28;20125;-76
2023/11/23 08:27:32;;;;;;;14.43;9.02;;;;;;;8.31;54.94;101879.50;5093247;28;20048;-74
2023/11/23 08:30:03;;;;;;;13.35;9.70;;;;;;;8.33;54.88;101884.88;5072560;28;20057;-77
2023/11/23 08:32:32;;;;;;;14.65;9.27;;;;;;;8.34;55.23;101883.91;5082223;28;20040;-77
2023/11/23 08:35:01;;;;;;;12.90;8.95;;;;;;;8.36;55.21;101875.59;5094259;28;20055;-77
2023/11/23 08:37:29;;;;;;;14.07;9.85;;;;;;;8.37;55.31;101878.22;5093764;28;20581;-75
2023/11/23 08:39:57;;;;;;;14.45;9.23;;;;;;;8.37;55.20;101877.34;5092932;28;20503;-77
2023/11/23 08:42:26;;;;;;;14.70;8.93;;;;;;;8.39;55.54;101870.84;5094297;28;20483;-76
2023/11/23 08:44:54;;;;;;;14.35;9.27;;;;;;;8.40;55.12;101863.53;5089142;28;20040;-77
2023/11/23 08:47:22;;;;;;;12.93;8.63;;;;;;;8.40;55.13;101869.88;5086339;28;20040;-76
2023/11/23 08:49:51;;;;;;;14.60;9.60;;;;;;;8.43;55.35;101863.31;5086414;28;20044;-77
2023/11/23 08:52:20;;;;;;;13.90;9.10;;;;;;;8.45;55.20;101866.84;5080595;28;20586;-76
2023/11/23 08:54:47;;;;;;;13.20;8.45;;;;;;;8.44;55.18;101865.97;5088929;28;20075;-76
2023/11/23 08:57:15;;;;;;;12.75;9.00;;;;;;;8.46;55.67;101858.56;5087938;28;20464;-76
2023/11/23 08:59:45;;;;;;;12.18;8.25;;;;;;;8.50;55.54;101859.25;5083419;28;20453;-76
2023/11/23 09:02:13;;;;;;;12.00;8.35;;;;;;;8.50;55.54;101862.00;5068221;28;20042;-75
2023/11/23 09:04:48;;;;;;;13.30;8.38;;;;;;;8.51;55.65;101864.59;5085683;28;20055;-75
2023/11/23 09:07:17;;;;;;;14.48;8.43;;;;;;;8.53;55.78;101861.78;5086838;28;20044;-75
2023/11/23 09:09:45;;;;;;;13.63;8.60;;;;;;;8.54;55.81;101849.88;5085598;28;20036;-75
2023/11/23 09:12:13;;;;;;;11.85;7.95;;;;;;;8.56;55.69;101853.41;5084229;28;20036;-75
2023/11/23 09:14:41;;;;;;;12.05;8.10;;;;;;;8.58;55.25;101844.16;5084482;28;20314;-75
2023/11/23 09:17:19;;;;;;;13.20;8.18;;;;;;;8.60;55.56;101836.72;5086790;28;20709;-75
2023/11/23 09:19:47;;;;;;;11.85;7.82;;;;;;;8.61;55.52;101838.47;5083408;28;20442;-76
2023/11/23 09:22:15;;;;;;;11.80;8.38;;;;;;;8.64;55.71;101832.84;5089904;28;20043;-75
2023/11/23 09:24:43;;;;;;;13.85;9.05;;;;;;;8.66;55.30;101846.41;5081180;28;20044;-75
2023/11/23 09:27:12;;;;;;;11.88;7.80;;;;;;;8.67;55.88;101840.81;5086389;28;20071;-75
2023/11/23 09:29:40;;;;;;;11.70;8.30;;;;;;;8.68;55.44;101848.03;5089188;28;20131;-75
2023/11/23 09:32:08;;;;;;;12.40;7.80;;;;;;;8.71;55.62;101839.66;5085971;28;20036;-76
2023/11/23 09:34:40;;;;;;;12.30;7.70;;;;;;;8.75;55.93;101848.53;5082804;28;20068;-76
2023/11/23 09:37:08;;;;;;;11.52;7.68;;;;;;;8.75;55.83;101832.16;5086265;28;20043;-76
2023/11/23 09:39:38;;;;;;;12.38;8.30;;;;;;;8.77;55.28;101834.75;5086218;28;20054;-75
2023/11/23 09:42:08;;;;;;;12.10;8.27;;;;;;;8.80;55.80;101818.19;5089728;28;20050;-75
2023/11/23 09:44:36;;;;;;;13.85;8.68;;;;;;;8.83;55.76;101820.75;5088180;28;20394;-75
2023/11/23 09:47:06;;;;;;;11.88;8.02;;;;;;;8.85;55.57;101825.09;5087689;28;20066;-75
2023/11/23 09:49:37;;;;;;;12.57;8.30;;;;;;;8.86;55.57;101836.91;5087459;28;20044;-75
2023/11/23 09:52:07;;;;;;;12.50;8.10;;;;;;;8.88;55.38;101840.41;5084172;28;20054;-76
2023/11/23 09:54:36;;;;;;;13.05;8.43;;;;;;;8.89;55.70;101839.44;5088272;28;20051;-76
2023/11/23 09:57:05;;;;;;;11.57;8.02;;;;;;;8.90;55.46;101838.47;5088539;28;20060;-76
2023/11/23 09:59:35;;;;;;;12.18;8.15;;;;;;;8.92;55.45;101844.69;5088934;28;20044;-77
2023/11/23 10:02:05;;;;;;;13.00;8.15;;;;;;;8.92;55.68;101831.91;5090951;28;20040;-76
2023/11/23 10:04:34;;;;;;;11.90;7.97;;;;;;;8.94;55.50;101823.63;5087344;28;20062;-76
2023/11/23 10:07:02;;;;;;;12.57;7.97;;;;;;;8.96;55.32;101808.03;5090947;28;20498;-76
2023/11/23 10:09:35;;;;;;;12.13;8.30;;;;;;;9.00;55.36;101790.50;5087700;28;20064;-76
2023/11/23 10:12:04;;;;;;;11.93;8.38;;;;;;;8.99;55.42;101795.06;5089583;28;20491;-76
2023/11/23 10:14:32;;;;;;;11.32;7.85;;;;;;;9.00;55.35;101788.59;5089308;28;20130;-76
2023/11/23 10:17:00;;;;;;;12.65;8.38;;;;;;;9.00;55.38;101788.59;5092505;28;20055;-77
2023/11/23 10:19:28;;;;;;;12.60;7.18;;;;;;;9.02;55.80;101800.31;5084435;28;20072;-76
2023/11/23 10:21:58;;;;;;;10.98;7.68;;;;;;;9.05;55.43;101796.50;5086376;28;20066;-76
2023/11/23 10:24:28;;;;;;;10.02;7.53;;;;;;;9.05;55.31;101796.50;5087774;28;20090;-76
2023/11/23 10:27:02;;;;;;;12.60;7.93;;;;;;;9.08;55.79;101790.84;5077662;28;20063;-74
2023/11/23 10:29:33;;;;;;;10.43;7.80;;;;;;;9.07;55.26;101789.09;5071077;28;20044;-74
2023/11/23 10:32:00;;;;;;;13.55;7.75;;;;;;;9.08;55.69;101772.59;5094264;28;20501;-74
2023/11/23 10:34:29;;;;;;;10.07;7.03;;;;;;;9.10;55.83;101767.91;5090762;28;20036;-74
2023/11/23 10:36:58;;;;;;;11.20;7.53;;;;;;;9.11;55.33;101779.69;5077468;28;20029;-74
2023/11/23 10:39:27;;;;;;;10.43;7.03;;;;;;;9.12;55.52;101781.47;5086106;28;20040;-74
2023/11/23 10:41:59;;;;;;;10.82;6.68;;;;;;;9.13;55.27;101779.59;5084795;28;20048;-75
2023/11/23 10:44:29;;;;;;;10.23;6.50;;;;;;;9.15;55.39;101772.19;5088876;28;20050;-74
2023/11/23 10:47:02;;;;;;;9.88;6.80;;;;;;;9.16;55.57;101768.50;5089529;28;20051;-74
2023/11/23 10:49:33;;;;;;;9.38;6.45;;;;;;;9.16;55.77;101765.75;5070343;28;20063;-74
2023/11/23 10:52:01;;;;;;;8.93;6.95;;;;;;;9.16;55.20;101747.53;5088480;28;20055;-74
2023/11/23 10:54:30;;;;;;;10.05;6.60;;;;;;;9.18;55.14;101741.94;5081079;28;20050;-73
2023/11/23 10:57:02;;;;;;;8.57;6.18;;;;;;;9.20;55.80;101740.84;5088020;28;20091;-74
2023/11/23 10:59:31;;;;;;;10.43;7.10;;;;;;;9.21;55.39;101730.81;5091110;28;20087;-73
2023/11/23 11:01:59;;;;;;;10.27;6.85;;;;;;;9.21;55.31;101725.34;5085622;28;20087;-74
2023/11/23 11:04:29;;;;;;;9.10;6.40;;;;;;;9.23;55.39;101724.25;5089203;28;20113;-73
2023/11/23 11:06:58;;;;;;;8.77;6.13;;;;;;;9.24;55.36;101726.03;5088669;28;20289;-73
2023/11/23 11:09:27;;;;;;;9.95;6.68;;;;;;;9.26;55.40;101714.97;5083468;28;20086;-73
2023/11/23 11:12:00;;;;;;;10.00;6.25;;;;;;;9.27;55.44;101720.31;5085860;28;20135;-74
2023/11/23 11:14:34;;;;;;;9.30;6.03;;;;;;;9.31;55.82;101727.34;5087844;28;20032;-74
2023/11/23 11:17:03;;;;;;;10.45;6.13;;;;;;;9.31;55.88;101723.75;5087679;28;20060;-73
2023/11/23 11:19:43;;;;;;;7.75;6.03;;;;;;;9.35;55.61;101711.59;5088420;28;20131;-76
2023/11/23 11:22:13;;;;;;;7.10;5.10;;;;;;;9.33;55.71;101694.47;5083785;28;20072;-75
2023/11/23 11:24:44;;;;;;;8.80;5.90;;;;;;;9.34;55.45;101693.47;5089038;28;20067;-75
2023/11/23 11:27:13;;;;;;;8.20;5.38;;;;;;;9.35;55.63;101696.09;5088585;28;20047;-75
2023/11/23 11:29:50;;;;;;;8.95;5.60;;;;;;;9.40;55.66;101696.69;5082925;28;20075;-75
2023/11/23 11:32:21;;;;;;;8.15;5.53;;;;;;;9.39;55.25;101699.53;5078452;28;20044;-75
2023/11/23 11:35:00;;;;;;;8.07;5.10;;;;;;;9.42;55.73;101691.97;5080367;28;20056;-75